N146MF BIRK-BIKF
Flight info
| Callsign | N146MF |
|---|---|
| Flight time | 0h 11m |
| Altitude | 6000 |
| Route | ELVUM |
| Aircraft | B462/M-SDFGIRWY/LB1 |
Departure
| Time | 2026-04-26 23:03 |
|---|---|
| Airport | Reykjavík Domestic Airport (BIRK) |
Arrival
| Time | 2026-04-26 23:14 |
|---|---|
| Airport | Keflavik International Airport (BIKF) |
| Time | Latitude | Longitude | Altitude | Speed | Heading |
|---|---|---|---|---|---|
| 2026-04-26 22:24 | 64.13025 | -21.93479 | 38 ft | 0 kts | 355° |
| 2026-04-26 22:59 | 64.13028 | -21.93480 | 38 ft | 1 kts | 355° |
| 2026-04-26 22:59 | 64.13052 | -21.93510 | 38 ft | 6 kts | 317° |
| 2026-04-26 22:59 | 64.13103 | -21.93544 | 38 ft | 8 kts | 358° |
| 2026-04-26 22:59 | 64.13171 | -21.93556 | 38 ft | 10 kts | 354° |
| 2026-04-26 23:00 | 64.13250 | -21.93569 | 38 ft | 12 kts | 355° |
| 2026-04-26 23:00 | 64.13341 | -21.93587 | 38 ft | 13 kts | 354° |
| 2026-04-26 23:00 | 64.13442 | -21.93608 | 37 ft | 15 kts | 355° |
| 2026-04-26 23:00 | 64.13534 | -21.93625 | 36 ft | 12 kts | 347° |
| 2026-04-26 23:01 | 64.13565 | -21.93655 | 36 ft | 0 kts | 326° |
| 2026-04-26 23:01 | 64.13574 | -21.93670 | 36 ft | 3 kts | 322° |
| 2026-04-26 23:02 | 64.13598 | -21.93724 | 35 ft | 6 kts | 312° |
| 2026-04-26 23:02 | 64.13631 | -21.93813 | 35 ft | 8 kts | 295° |
| 2026-04-26 23:02 | 64.13605 | -21.93885 | 35 ft | 0 kts | 176° |
| 2026-04-26 23:02 | 64.13572 | -21.93879 | 35 ft | 28 kts | 176° |
| 2026-04-26 23:03 | 64.13028 | -21.93781 | 68 ft | 118 kts | 172° |
| 2026-04-26 23:03 | 64.12134 | -21.93617 | 685 ft | 140 kts | 172° |
| 2026-04-26 23:03 | 64.11231 | -21.93415 | 1780 ft | 135 kts | 175° |
| 2026-04-26 23:03 | 64.10332 | -21.94136 | 2500 ft | 157 kts | 212° |
| 2026-04-26 23:04 | 64.09728 | -21.96550 | 2926 ft | 201 kts | 254° |
| 2026-04-26 23:04 | 64.09956 | -21.99861 | 3536 ft | 227 kts | 292° |
| 2026-04-26 23:04 | 64.11000 | -22.02602 | 4142 ft | 230 kts | 318° |
| 2026-04-26 23:04 | 64.12215 | -22.04920 | 4611 ft | 230 kts | 310° |
| 2026-04-26 23:05 | 64.13168 | -22.07803 | 5075 ft | 226 kts | 293° |
| 2026-04-26 23:05 | 64.13792 | -22.11072 | 5489 ft | 222 kts | 283° |
| 2026-04-26 23:05 | 64.14222 | -22.14435 | 5839 ft | 222 kts | 277° |
| 2026-04-26 23:05 | 64.14562 | -22.17982 | 5987 ft | 233 kts | 275° |
| 2026-04-26 23:06 | 64.14848 | -22.21681 | 6003 ft | 238 kts | 274° |
| 2026-04-26 23:06 | 64.15120 | -22.25443 | 6005 ft | 238 kts | 273° |
| 2026-04-26 23:06 | 64.15379 | -22.29094 | 5853 ft | 229 kts | 273° |
| 2026-04-26 23:06 | 64.15624 | -22.32612 | 5636 ft | 211 kts | 272° |
| 2026-04-26 23:07 | 64.15843 | -22.35765 | 5281 ft | 193 kts | 271° |
| 2026-04-26 23:07 | 64.15939 | -22.37749 | 5036 ft | 184 kts | 263° |
| 2026-04-26 23:07 | 64.15655 | -22.41422 | 4360 ft | 178 kts | 250° |
| 2026-04-26 23:07 | 64.15471 | -22.44300 | 3863 ft | 186 kts | 256° |
| 2026-04-26 23:08 | 64.15285 | -22.47247 | 3440 ft | 192 kts | 252° |
| 2026-04-26 23:08 | 64.14973 | -22.50232 | 2992 ft | 196 kts | 248° |
| 2026-04-26 23:08 | 64.14568 | -22.53232 | 2574 ft | 199 kts | 245° |
| 2026-04-26 23:08 | 64.14119 | -22.56210 | 2257 ft | 195 kts | 244° |
| 2026-04-26 23:09 | 64.13526 | -22.58779 | 2200 ft | 169 kts | 220° |
| 2026-04-26 23:09 | 64.12622 | -22.60156 | 2126 ft | 146 kts | 193° |
| 2026-04-26 23:09 | 64.11692 | -22.60537 | 1983 ft | 128 kts | 178° |
| 2026-04-26 23:09 | 64.10829 | -22.60509 | 1825 ft | 125 kts | 178° |
| 2026-04-26 23:10 | 64.09972 | -22.60529 | 1774 ft | 122 kts | 175° |
| 2026-04-26 23:10 | 64.09127 | -22.60496 | 1813 ft | 121 kts | 177° |
| 2026-04-26 23:10 | 64.08273 | -22.60525 | 1782 ft | 122 kts | 179° |
| 2026-04-26 23:10 | 64.07471 | -22.60545 | 1771 ft | 106 kts | 178° |
| 2026-04-26 23:11 | 64.06748 | -22.60551 | 1701 ft | 103 kts | 176° |
| 2026-04-26 23:11 | 64.06028 | -22.60550 | 1568 ft | 102 kts | 175° |
| 2026-04-26 23:11 | 64.05325 | -22.60555 | 1410 ft | 100 kts | 177° |
| 2026-04-26 23:11 | 64.04630 | -22.60558 | 1280 ft | 102 kts | 178° |
| 2026-04-26 23:12 | 64.03912 | -22.60558 | 1145 ft | 102 kts | 176° |
| 2026-04-26 23:12 | 64.03195 | -22.60571 | 1000 ft | 103 kts | 178° |
| 2026-04-26 23:12 | 64.02502 | -22.60640 | 910 ft | 96 kts | 178° |
| 2026-04-26 23:12 | 64.01849 | -22.60666 | 778 ft | 94 kts | 175° |
| 2026-04-26 23:13 | 64.01183 | -22.60639 | 627 ft | 95 kts | 175° |
| 2026-04-26 23:13 | 64.00534 | -22.60573 | 447 ft | 92 kts | 175° |
| 2026-04-26 23:13 | 63.99884 | -22.60562 | 323 ft | 94 kts | 175° |
| 2026-04-26 23:13 | 63.99223 | -22.60552 | 218 ft | 94 kts | 175° |
| 2026-04-26 23:14 | 63.98621 | -22.60540 | 171 ft | 73 kts | 176° |
| 2026-04-26 23:14 | 63.98195 | -22.60545 | 171 ft | 45 kts | 183° |
| 2026-04-26 23:14 | 63.97926 | -22.60549 | 170 ft | 32 kts | 180° |
| 2026-04-26 23:14 | 63.97721 | -22.60551 | 168 ft | 27 kts | 181° |
| 2026-04-26 23:15 | 63.97535 | -22.60550 | 165 ft | 24 kts | 180° |
| 2026-04-26 23:15 | 63.97421 | -22.60545 | 163 ft | 9 kts | 160° |
| 2026-04-26 23:15 | 63.97390 | -22.60413 | 164 ft | 10 kts | 114° |
| 2026-04-26 23:15 | 63.97361 | -22.60259 | 164 ft | 11 kts | 113° |
| 2026-04-26 23:16 | 63.97329 | -22.60091 | 165 ft | 11 kts | 110° |
| 2026-04-26 23:16 | 63.97298 | -22.59915 | 165 ft | 12 kts | 114° |
| 2026-04-26 23:16 | 63.97281 | -22.59771 | 167 ft | 6 kts | 54° |
| 2026-04-26 23:16 | 63.97317 | -22.59723 | 168 ft | 4 kts | 67° |
| 2026-04-26 23:17 | 63.97316 | -22.59672 | 169 ft | 2 kts | 108° |
| 2026-04-26 23:17 | 63.97313 | -22.59655 | 169 ft | 2 kts | 109° |
| 2026-04-26 23:17 | 63.97306 | -22.59615 | 170 ft | 0 kts | 112° |